Time;durP1;ratioP1;P1;durP2;ratioP2;P2;SDS_P1;SDS_P2;PMS_P1;PMS_P2;Temp;Humidity;BMP_temperature;BMP_pressure;BME280_temperature;BME280_humidity;BME280_pressure;Samples;Min_cycle;Max_cycle;Signal;HPM_P1;HPM_P2
2024/01/25 00:02:03;;;;;;;9.38;2.50;;;7.80;99.90;;;;;;5021252;28;20041;-68
2024/01/25 00:04:28;;;;;;;0.20;0.20;;;7.80;99.90;;;;;;5026309;28;20042;-67
2024/01/25 00:06:54;;;;;;;1.23;1.13;;;7.80;99.90;;;;;;5028670;28;20045;-68
2024/01/25 00:09:19;;;;;;;0.95;0.95;;;7.80;99.90;;;;;;5031298;28;20370;-68
2024/01/25 00:11:45;;;;;;;0.10;0.10;;;7.80;99.90;;;;;;5022416;28;20160;-67
2024/01/25 00:14:11;;;;;;;8.82;2.75;;;7.80;99.90;;;;;;5022893;28;20034;-68
2024/01/25 00:16:41;;;;;;;0.55;0.55;;;7.80;99.90;;;;;;5025069;28;20042;-67
2024/01/25 00:19:06;;;;;;;0.60;0.60;;;7.80;99.90;;;;;;5026738;28;20091;-67
2024/01/25 00:21:32;;;;;;;4.28;1.02;;;7.80;99.90;;;;;;5026712;28;20069;-68
2024/01/25 00:23:57;;;;;;;2.00;1.20;;;7.80;99.90;;;;;;5020599;28;20042;-68
2024/01/25 00:26:23;;;;;;;0.10;0.10;;;7.80;99.90;;;;;;5031298;28;20053;-68
2024/01/25 00:28:48;;;;;;;0.10;0.10;;;7.80;99.90;;;;;;5030539;28;20049;-67
2024/01/25 00:31:14;;;;;;;25.35;2.50;;;7.70;99.90;;;;;;5028038;28;20122;-68
2024/01/25 00:33:39;;;;;;;0.10;0.10;;;7.70;99.90;;;;;;5019812;28;20034;-68
2024/01/25 00:36:06;;;;;;;0.55;0.52;;;7.70;99.90;;;;;;5029195;28;20099;-68
2024/01/25 00:38:31;;;;;;;1.20;1.20;;;7.70;99.90;;;;;;5043985;28;20045;-68
2024/01/25 00:40:57;;;;;;;1.40;1.30;;;7.70;99.90;;;;;;5015836;28;20052;-68
2024/01/25 00:43:23;;;;;;;0.32;0.20;;;7.70;99.90;;;;;;5031704;28;20087;-68
2024/01/25 00:45:49;;;;;;;0.55;0.52;;;7.70;99.90;;;;;;5029773;28;20049;-67
2024/01/25 00:48:15;;;;;;;0.90;0.90;;;7.60;99.90;;;;;;5020375;28;20409;-67
2024/01/25 00:50:41;;;;;;;0.40;0.40;;;7.60;99.90;;;;;;5024216;28;20089;-68
2024/01/25 00:53:07;;;;;;;0.10;0.10;;;7.60;99.90;;;;;;5031804;28;20037;-68
2024/01/25 00:55:32;;;;;;;0.32;0.32;;;7.60;99.90;;;;;;5030185;28;20525;-68
2024/01/25 00:57:59;;;;;;;0.28;0.28;;;7.60;99.90;;;;;;5029997;28;20047;-68
2024/01/25 01:00:25;;;;;;;2.92;1.85;;;7.60;99.90;;;;;;5021887;28;20045;-67
2024/01/25 01:02:53;;;;;;;0.10;0.10;;;7.60;99.90;;;;;;5027059;28;20397;-67
2024/01/25 01:05:19;;;;;;;0.10;0.10;;;7.60;99.90;;;;;;5022411;28;20513;-67
2024/01/25 01:07:45;;;;;;;1.30;0.93;;;7.50;99.90;;;;;;5024782;28;20124;-68
2024/01/25 01:10:11;;;;;;;0.10;0.10;;;7.40;99.90;;;;;;5029031;28;20045;-68
2024/01/25 01:12:36;;;;;;;4.97;1.90;;;7.50;99.90;;;;;;5026055;28;20041;-68
2024/01/25 01:15:03;;;;;;;0.47;0.47;;;7.50;99.90;;;;;;5021686;28;20037;-68
2024/01/25 01:17:29;;;;;;;0.10;0.10;;;7.50;99.90;;;;;;5030338;28;20375;-67
2024/01/25 01:19:54;;;;;;;0.10;0.10;;;7.40;99.90;;;;;;5040180;28;20048;-68
2024/01/25 01:22:20;;;;;;;1.40;1.35;;;7.50;99.90;;;;;;5031289;28;20095;-68
2024/01/25 01:24:45;;;;;;;0.10;0.10;;;7.40;99.90;;;;;;5016605;28;20140;-68
2024/01/25 01:27:11;;;;;;;0.10;0.10;;;7.40;99.90;;;;;;5027653;28;20045;-67
2024/01/25 01:29:37;;;;;;;4.40;1.45;;;7.40;99.90;;;;;;5029958;28;20056;-67
2024/01/25 01:32:03;;;;;;;2.85;2.63;;;7.40;99.90;;;;;;5020926;28;20128;-68
2024/01/25 01:34:28;;;;;;;1.10;1.00;;;7.40;99.90;;;;;;5027897;28;20051;-67
2024/01/25 01:36:54;;;;;;;1.10;1.10;;;7.40;99.90;;;;;;5025888;28;20041;-68
2024/01/25 01:39:19;;;;;;;0.45;0.45;;;7.40;99.90;;;;;;5018515;28;20057;-67
2024/01/25 01:41:49;;;;;;;0.10;0.10;;;7.40;99.90;;;;;;5021535;28;20477;-67
2024/01/25 01:44:15;;;;;;;0.20;0.20;;;7.40;99.90;;;;;;5027936;28;20033;-68
2024/01/25 01:46:41;;;;;;;3.70;1.80;;;7.40;99.90;;;;;;5014449;28;20099;-68
2024/01/25 01:49:10;;;;;;;0.30;0.30;;;7.30;99.90;;;;;;5024734;28;20048;-68
2024/01/25 01:51:37;;;;;;;0.10;0.10;;;7.30;99.90;;;;;;5024902;28;20072;-68
2024/01/25 01:54:03;;;;;;;0.47;0.47;;;7.30;99.90;;;;;;5025033;28;20092;-68
2024/01/25 01:56:29;;;;;;;0.10;0.10;;;7.30;99.90;;;;;;5023033;28;20393;-68
2024/01/25 01:59:15;;;;;;;0.35;0.35;;;7.30;99.90;;;;;;5037845;28;20045;-67
2024/01/25 02:01:40;;;;;;;23.42;1.08;;;7.30;99.90;;;;;;5021768;28;20054;-67
2024/01/25 02:04:06;;;;;;;0.80;0.50;;;7.30;99.90;;;;;;5022477;28;20563;-67
2024/01/25 02:06:32;;;;;;;0.50;0.50;;;7.20;99.90;;;;;;5025773;28;20428;-68
2024/01/25 02:09:00;;;;;;;0.20;0.20;;;7.20;99.90;;;;;;5024334;28;20157;-68
2024/01/25 02:11:27;;;;;;;1.10;1.10;;;7.20;99.90;;;;;;5029436;28;20048;-67
2024/01/25 02:13:52;;;;;;;0.10;0.10;;;7.20;99.90;;;;;;5023212;28;20033;-68
2024/01/25 02:16:19;;;;;;;0.20;0.20;;;7.20;99.90;;;;;;5024681;28;20041;-67
2024/01/25 02:18:46;;;;;;;2.55;1.70;;;7.20;99.90;;;;;;5020480;28;20045;-68
2024/01/25 02:21:11;;;;;;;0.35;0.35;;;7.20;99.90;;;;;;5026143;28;20045;-67
2024/01/25 02:23:37;;;;;;;0.10;0.10;;;7.20;99.90;;;;;;5027642;28;20190;-67
2024/01/25 02:26:03;;;;;;;0.20;0.20;;;7.20;99.90;;;;;;5023564;28;20102;-68
2024/01/25 02:28:28;;;;;;;0.50;0.50;;;7.10;99.90;;;;;;5026975;28;20054;-68
2024/01/25 02:30:54;;;;;;;0.80;0.43;;;7.20;99.90;;;;;;5029790;28;20583;-68
2024/01/25 02:33:19;;;;;;;0.40;0.40;;;7.20;99.90;;;;;;5015078;28;20034;-67
2024/01/25 02:35:45;;;;;;;0.35;0.35;;;7.10;99.90;;;;;;5020575;28;20595;-67
2024/01/25 02:38:10;;;;;;;0.10;0.10;;;7.10;99.90;;;;;;5022675;28;20370;-68
2024/01/25 02:40:36;;;;;;;0.10;0.10;;;7.10;99.90;;;;;;5026265;28;20147;-68
2024/01/25 02:43:01;;;;;;;3.95;1.55;;;7.10;99.90;;;;;;5020404;28;20141;-67
2024/01/25 02:45:27;;;;;;;6.82;1.45;;;7.10;99.90;;;;;;5025205;28;20034;-67
2024/01/25 02:47:53;;;;;;;0.20;0.20;;;7.10;99.90;;;;;;5015452;28;20626;-67
2024/01/25 02:50:18;;;;;;;0.45;0.45;;;7.00;99.90;;;;;;5017097;28;20527;-68
2024/01/25 02:52:44;;;;;;;3.15;1.75;;;7.10;99.90;;;;;;5026863;28;20496;-67
2024/01/25 02:55:10;;;;;;;0.10;0.10;;;7.00;99.90;;;;;;5022995;28;20042;-67
2024/01/25 02:57:35;;;;;;;5.47;2.58;;;7.00;99.90;;;;;;5024453;28;20074;-67
2024/01/25 03:00:01;;;;;;;0.10;0.10;;;7.10;99.90;;;;;;5022581;28;20506;-68
2024/01/25 03:02:26;;;;;;;12.30;3.17;;;7.00;99.90;;;;;;5021139;28;20081;-68
2024/01/25 03:04:52;;;;;;;0.40;0.40;;;7.00;99.90;;;;;;5024123;28;20140;-67
2024/01/25 03:07:18;;;;;;;0.50;0.50;;;7.00;99.90;;;;;;5029158;28;20037;-67
2024/01/25 03:09:43;;;;;;;0.45;0.45;;;7.00;99.90;;;;;;5030979;28;20062;-67
2024/01/25 03:12:09;;;;;;;2.47;1.38;;;6.90;99.90;;;;;;5027964;28;20068;-67
2024/01/25 03:14:35;;;;;;;0.35;0.35;;;6.90;99.90;;;;;;5016782;28;20113;-68
2024/01/25 03:17:00;;;;;;;0.10;0.10;;;6.90;99.90;;;;;;5016187;28;20053;-68
2024/01/25 03:19:27;;;;;;;0.10;0.10;;;6.90;99.90;;;;;;5028212;28;20045;-68
2024/01/25 03:21:54;;;;;;;0.00;0.00;;;6.90;99.90;;;;;;5029985;28;20045;-67
2024/01/25 03:24:20;;;;;;;0.52;0.47;;;6.90;99.90;;;;;;5022834;28;20041;-67
2024/01/25 03:26:45;;;;;;;0.13;0.13;;;6.80;99.90;;;;;;5028328;28;20448;-68
2024/01/25 03:29:11;;;;;;;0.47;0.47;;;6.80;99.90;;;;;;5027749;28;20523;-68
2024/01/25 03:31:37;;;;;;;0.43;0.43;;;6.80;99.90;;;;;;5024411;28;20045;-68
2024/01/25 03:34:03;;;;;;;2.90;1.52;;;6.80;99.90;;;;;;5030303;28;20077;-68
2024/01/25 03:36:28;;;;;;;0.00;0.00;;;6.80;99.90;;;;;;5032319;28;20034;-68
2024/01/25 03:38:54;;;;;;;0.10;0.10;;;6.70;99.90;;;;;;5020289;28;20049;-68
2024/01/25 03:41:20;;;;;;;4.18;1.02;;;6.70;99.90;;;;;;5046035;28;20045;-68
2024/01/25 03:43:46;;;;;;;2.05;1.20;;;6.80;99.90;;;;;;5029337;28;20095;-68
2024/01/25 03:46:12;;;;;;;0.20;0.20;;;6.80;99.90;;;;;;5019973;28;20038;-67
2024/01/25 03:48:38;;;;;;;0.20;0.20;;;6.70;99.90;;;;;;5030026;28;20045;-67
2024/01/25 03:51:03;;;;;;;0.10;0.10;;;6.70;99.90;;;;;;5032750;28;20512;-67
2024/01/25 03:53:29;;;;;;;0.10;0.10;;;6.70;99.90;;;;;;5021728;28;20045;-67
2024/01/25 03:55:55;;;;;;;1.17;0.80;;;6.60;99.90;;;;;;5021563;28;20037;-67
2024/01/25 03:58:20;;;;;;;1.27;0.75;;;6.60;99.90;;;;;;5032156;28;20060;-68
2024/01/25 04:00:46;;;;;;;1.58;1.48;;;6.60;99.90;;;;;;5028261;28;20080;-67
2024/01/25 04:03:12;;;;;;;0.20;0.20;;;6.60;99.90;;;;;;5029877;28;20033;-68
2024/01/25 04:05:39;;;;;;;0.40;0.40;;;6.70;99.90;;;;;;5028729;28;20110;-67
2024/01/25 04:08:06;;;;;;;0.10;0.10;;;6.60;99.90;;;;;;5035936;28;20045;-67
2024/01/25 04:10:32;;;;;;;0.10;0.10;;;6.60;99.90;;;;;;5028513;28;20517;-67
2024/01/25 04:12:57;;;;;;;0.20;0.20;;;6.60;99.90;;;;;;5026664;28;20045;-67
2024/01/25 04:15:23;;;;;;;0.52;0.52;;;6.60;99.90;;;;;;5028687;28;20042;-67
2024/01/25 04:17:49;;;;;;;5.15;1.67;;;6.60;99.90;;;;;;5027009;28;20045;-68
2024/01/25 04:20:15;;;;;;;0.20;0.20;;;6.50;99.90;;;;;;5032199;28;20044;-67
2024/01/25 04:22:41;;;;;;;0.88;0.82;;;6.50;99.90;;;;;;5025287;28;20122;-67
2024/01/25 04:25:07;;;;;;;0.32;0.32;;;6.50;99.90;;;;;;5019421;28;20462;-67
2024/01/25 04:27:32;;;;;;;0.20;0.20;;;6.50;99.90;;;;;;5022025;28;20045;-68
2024/01/25 04:29:58;;;;;;;0.20;0.20;;;6.50;99.90;;;;;;5030082;28;20049;-67
2024/01/25 04:32:23;;;;;;;6.32;2.28;;;6.50;99.90;;;;;;5031308;28;20041;-68
2024/01/25 04:34:49;;;;;;;2.40;1.65;;;6.50;99.90;;;;;;5023055;28;20208;-68
2024/01/25 04:37:15;;;;;;;0.98;0.85;;;6.50;99.90;;;;;;5034647;28;20038;-67
2024/01/25 04:39:41;;;;;;;0.10;0.10;;;6.50;99.90;;;;;;5026879;28;20054;-67
2024/01/25 04:42:07;;;;;;;1.65;1.52;;;6.50;99.90;;;;;;5016529;28;20049;-67
2024/01/25 04:44:34;;;;;;;1.45;0.90;;;6.50;99.90;;;;;;5017487;28;20049;-68
2024/01/25 04:47:00;;;;;;;0.52;0.52;;;6.50;99.90;;;;;;5019888;28;20129;-67
2024/01/25 04:49:26;;;;;;;0.17;0.17;;;6.50;99.90;;;;;;5030566;28;20095;-67
2024/01/25 04:51:51;;;;;;;0.25;0.25;;;6.50;99.90;;;;;;5031635;28;20041;-67
2024/01/25 04:54:17;;;;;;;0.10;0.10;;;6.50;99.90;;;;;;5029772;28;20071;-68
2024/01/25 04:56:44;;;;;;;0.10;0.10;;;6.50;99.90;;;;;;5022631;28;20151;-67
2024/01/25 04:59:09;;;;;;;5.38;1.55;;;6.50;99.90;;;;;;5022885;28;20041;-67
2024/01/25 05:01:35;;;;;;;0.80;0.80;;;6.50;99.90;;;;;;5029526;28;20413;-67
2024/01/25 05:04:01;;;;;;;0.13;0.13;;;6.50;99.90;;;;;;5026911;28;20378;-67
2024/01/25 05:06:26;;;;;;;0.10;0.10;;;6.50;99.90;;;;;;5026770;28;20033;-67
2024/01/25 05:08:52;;;;;;;0.20;0.20;;;6.50;99.90;;;;;;5020490;28;20045;-67
2024/01/25 05:11:18;;;;;;;0.17;0.17;;;6.40;99.90;;;;;;5029361;28;20092;-67
2024/01/25 05:13:43;;;;;;;0.85;0.85;;;6.40;99.90;;;;;;5020795;28;20042;-67
2024/01/25 05:16:09;;;;;;;0.20;0.20;;;6.40;99.90;;;;;;5029714;28;20088;-67
2024/01/25 05:18:34;;;;;;;0.25;0.25;;;6.50;99.90;;;;;;5017160;28;20046;-67
2024/01/25 05:21:00;;;;;;;0.38;0.38;;;6.40;99.90;;;;;;5029282;28;20124;-67
2024/01/25 05:23:26;;;;;;;0.10;0.10;;;6.40;99.90;;;;;;5023057;28;20050;-68
2024/01/25 05:25:53;;;;;;;0.10;0.10;;;6.40;99.90;;;;;;5024481;28;20046;-67
2024/01/25 05:28:18;;;;;;;0.10;0.10;;;6.30;99.90;;;;;;5026678;28;20050;-67
2024/01/25 05:30:44;;;;;;;0.10;0.10;;;6.30;99.90;;;;;;5018935;28;20516;-67
2024/01/25 05:33:09;;;;;;;3.53;1.38;;;6.40;99.90;;;;;;5027350;28;20144;-67
2024/01/25 05:35:35;;;;;;;0.10;0.10;;;6.30;99.90;;;;;;5022307;28;20045;-68
2024/01/25 05:38:01;;;;;;;0.00;0.00;;;6.40;99.90;;;;;;5026782;28;20030;-68
2024/01/25 05:40:26;;;;;;;0.10;0.10;;;6.40;99.90;;;;;;5028905;28;20085;-67
2024/01/25 05:42:52;;;;;;;1.75;0.90;;;6.40;99.90;;;;;;5030534;28;20045;-67
2024/01/25 05:45:20;;;;;;;2.95;0.90;;;6.30;99.90;;;;;;5023311;28;20038;-68
2024/01/25 05:47:46;;;;;;;0.75;0.75;;;6.40;99.90;;;;;;5027936;28;20064;-67
2024/01/25 05:50:11;;;;;;;0.10;0.10;;;6.40;99.90;;;;;;5024937;28;20046;-68
2024/01/25 05:52:37;;;;;;;1.33;1.23;;;6.40;99.90;;;;;;5021716;28;20045;-68
2024/01/25 05:55:04;;;;;;;0.52;0.52;;;6.40;99.90;;;;;;5029003;28;20060;-67
2024/01/25 05:57:30;;;;;;;0.00;0.00;;;6.30;99.90;;;;;;5028423;28;20034;-68
2024/01/25 05:59:56;;;;;;;0.75;0.75;;;6.30;99.90;;;;;;5021051;28;20050;-68
2024/01/25 06:02:21;;;;;;;1.90;1.17;;;6.30;99.90;;;;;;5025489;28;20041;-67
2024/01/25 06:04:47;;;;;;;0.25;0.25;;;6.20;99.90;;;;;;5027962;28;20071;-67
2024/01/25 06:07:12;;;;;;;1.55;1.45;;;6.20;99.90;;;;;;5014671;28;20045;-67
2024/01/25 06:09:38;;;;;;;0.10;0.10;;;6.30;99.90;;;;;;5023984;28;20053;-67
2024/01/25 06:12:04;;;;;;;0.10;0.10;;;6.20;99.90;;;;;;5026019;28;20045;-67
2024/01/25 06:14:30;;;;;;;0.10;0.10;;;6.20;99.90;;;;;;5026383;28;20037;-67
2024/01/25 06:16:56;;;;;;;0.73;0.73;;;6.20;99.90;;;;;;5025009;28;20121;-67
2024/01/25 06:19:21;;;;;;;0.22;0.22;;;6.20;99.90;;;;;;5011700;28;20480;-67
2024/01/25 06:21:47;;;;;;;0.90;0.90;;;6.20;99.90;;;;;;5023264;28;20042;-67
2024/01/25 06:24:13;;;;;;;0.10;0.10;;;6.20;99.90;;;;;;5015592;28;20562;-68
2024/01/25 06:26:38;;;;;;;0.35;0.35;;;6.30;99.90;;;;;;5027497;28;20531;-68
2024/01/25 06:29:04;;;;;;;0.50;0.50;;;6.30;99.90;;;;;;5022933;28;20080;-67
2024/01/25 06:31:30;;;;;;;0.52;0.52;;;6.10;99.90;;;;;;5029118;28;20825;-68
2024/01/25 06:33:56;;;;;;;0.73;0.73;;;6.00;99.90;;;;;;5019644;28;20045;-67
2024/01/25 06:36:22;;;;;;;0.50;0.50;;;5.90;99.90;;;;;;5028806;28;20576;-67
2024/01/25 06:38:48;;;;;;;0.38;0.38;;;5.80;99.90;;;;;;5025395;28;20390;-68
2024/01/25 06:41:14;;;;;;;0.85;0.85;;;5.70;99.90;;;;;;5022963;28;20104;-67
2024/01/25 06:43:40;;;;;;;0.00;0.00;;;5.60;99.90;;;;;;5022884;28;20049;-67
2024/01/25 06:46:07;;;;;;;6.03;3.40;;;5.60;99.90;;;;;;5026323;28;20045;-67
2024/01/25 06:48:33;;;;;;;0.15;0.15;;;5.60;99.90;;;;;;5026674;28;20085;-67
2024/01/25 06:50:58;;;;;;;0.85;0.85;;;5.60;99.90;;;;;;5028380;28;20128;-67
2024/01/25 06:53:24;;;;;;;0.57;0.57;;;5.50;99.90;;;;;;5021271;28;20588;-67
2024/01/25 06:55:49;;;;;;;0.10;0.10;;;5.30;99.90;;;;;;5014984;28;20041;-67
2024/01/25 06:58:15;;;;;;;0.10;0.10;;;5.30;99.90;;;;;;5020810;28;20444;-67
2024/01/25 07:00:42;;;;;;;0.13;0.13;;;5.40;99.90;;;;;;5028128;28;20049;-67
2024/01/25 07:03:08;;;;;;;0.65;0.65;;;5.30;99.90;;;;;;5022740;28;20588;-67
2024/01/25 07:05:35;;;;;;;1.67;1.17;;;5.40;99.90;;;;;;5020247;28;20048;-67
2024/01/25 07:08:01;;;;;;;3.92;2.00;;;5.40;99.90;;;;;;5029196;28;20103;-67
2024/01/25 07:10:27;;;;;;;0.85;0.85;;;5.50;99.90;;;;;;5025098;28;20045;-67
2024/01/25 07:12:53;;;;;;;1.00;1.00;;;5.40;99.90;;;;;;5039908;28;20123;-67
2024/01/25 07:15:19;;;;;;;0.10;0.10;;;5.40;99.90;;;;;;5027909;28;20124;-67
2024/01/25 07:17:45;;;;;;;0.30;0.30;;;5.30;99.90;;;;;;5027648;28;20049;-67
2024/01/25 07:20:11;;;;;;;1.67;1.58;;;5.30;99.90;;;;;;5021395;28;20064;-67
2024/01/25 07:22:36;;;;;;;0.20;0.20;;;5.20;99.90;;;;;;5013042;28;20436;-67
2024/01/25 07:25:02;;;;;;;15.35;1.55;;;5.20;99.90;;;;;;5019072;28;20068;-67
2024/01/25 07:27:28;;;;;;;0.30;0.30;;;5.40;99.90;;;;;;5021089;28;20034;-67
2024/01/25 07:29:53;;;;;;;0.10;0.10;;;5.50;99.90;;;;;;5023905;28;20408;-67
2024/01/25 07:32:20;;;;;;;3.15;2.70;;;5.50;99.90;;;;;;5028389;28;20453;-67
2024/01/25 07:34:45;;;;;;;0.60;0.60;;;5.60;99.90;;;;;;5024042;28;20045;-67
2024/01/25 07:37:12;;;;;;;0.10;0.10;;;5.60;99.90;;;;;;5025670;28;20048;-67
2024/01/25 07:39:37;;;;;;;0.28;0.28;;;5.50;99.90;;;;;;5034631;28;20057;-67
2024/01/25 07:42:03;;;;;;;0.25;0.25;;;5.60;99.90;;;;;;5022303;28;20054;-68
2024/01/25 07:44:29;;;;;;;0.90;0.90;;;5.50;99.90;;;;;;5026442;28;20034;-67
2024/01/25 07:46:54;;;;;;;2.92;2.40;;;5.50;99.90;;;;;;5019778;28;20065;-67
2024/01/25 07:49:20;;;;;;;0.10;0.10;;;5.60;99.90;;;;;;5028368;28;20041;-67
2024/01/25 07:51:46;;;;;;;0.55;0.55;;;5.60;99.90;;;;;;5027363;28;20132;-67
2024/01/25 07:54:12;;;;;;;2.13;2.03;;;5.50;99.90;;;;;;5027296;28;20048;-67
2024/01/25 07:56:37;;;;;;;1.38;1.27;;;5.50;99.90;;;;;;5023451;28;20332;-67
2024/01/25 07:59:03;;;;;;;0.32;0.32;;;5.50;99.90;;;;;;5026015;28;20099;-67
2024/01/25 08:01:29;;;;;;;0.85;0.55;;;5.50;99.90;;;;;;5027183;28;20084;-67
2024/01/25 08:03:55;;;;;;;0.50;0.45;;;5.60;99.90;;;;;;5022415;28;20034;-67
2024/01/25 08:06:22;;;;;;;0.38;0.38;;;5.60;99.90;;;;;;5023898;28;20042;-67
2024/01/25 08:08:48;;;;;;;0.10;0.10;;;5.60;99.90;;;;;;5021933;28;20056;-67
2024/01/25 08:11:13;;;;;;;0.30;0.30;;;5.70;99.90;;;;;;5027737;28;20049;-67
2024/01/25 08:13:42;;;;;;;4.30;1.58;;;5.70;99.90;;;;;;5026752;28;20077;-67
2024/01/25 08:16:12;;;;;;;0.55;0.55;;;5.70;99.90;;;;;;5022603;28;20061;-67
2024/01/25 08:18:37;;;;;;;3.20;2.85;;;5.70;99.90;;;;;;5028240;28;20049;-67
2024/01/25 08:21:03;;;;;;;4.05;1.23;;;5.70;99.90;;;;;;5037833;28;20416;-67
2024/01/25 08:23:29;;;;;;;1.20;1.15;;;5.70;99.90;;;;;;5022044;28;20045;-67
2024/01/25 08:25:54;;;;;;;0.28;0.20;;;5.80;99.90;;;;;;5031083;28;20045;-67
2024/01/25 08:28:21;;;;;;;0.00;0.00;;;5.80;99.90;;;;;;5021742;28;20045;-67
2024/01/25 08:30:47;;;;;;;3.95;2.22;;;5.70;99.90;;;;;;5020214;28;20515;-67
2024/01/25 08:33:13;;;;;;;0.35;0.35;;;5.80;99.90;;;;;;5031570;28;20081;-67
2024/01/25 08:35:40;;;;;;;1.00;0.35;;;5.70;99.90;;;;;;5028370;28;21001;-67
2024/01/25 08:38:06;;;;;;;0.17;0.17;;;5.70;99.90;;;;;;5018950;28;20058;-67
2024/01/25 08:40:32;;;;;;;0.32;0.32;;;5.80;99.90;;;;;;5032387;28;20057;-67
2024/01/25 08:42:58;;;;;;;3.05;2.20;;;5.80;99.90;;;;;;5035237;28;20050;-67
2024/01/25 08:45:24;;;;;;;0.30;0.30;;;5.80;99.90;;;;;;5026966;28;20100;-67
2024/01/25 08:47:51;;;;;;;0.00;0.00;;;5.80;99.90;;;;;;5020947;28;20045;-67
2024/01/25 08:50:16;;;;;;;0.10;0.10;;;5.80;99.90;;;;;;5030163;28;20048;-67
2024/01/25 08:52:42;;;;;;;0.10;0.10;;;5.90;99.90;;;;;;5020380;28;20049;-67
2024/01/25 08:55:09;;;;;;;0.10;0.10;;;6.00;99.90;;;;;;5021078;28;20061;-67
2024/01/25 08:57:35;;;;;;;1.83;1.50;;;6.00;99.90;;;;;;5013474;28;20497;-67
2024/01/25 09:00:01;;;;;;;0.90;0.90;;;5.90;99.90;;;;;;5031489;28;20041;-67
2024/01/25 09:02:29;;;;;;;1.20;0.85;;;6.00;99.90;;;;;;5019073;28;20065;-67
2024/01/25 09:04:55;;;;;;;0.10;0.10;;;6.00;99.90;;;;;;5027054;28;20047;-67
2024/01/25 09:07:20;;;;;;;0.10;0.10;;;6.00;99.90;;;;;;5018253;28;20080;-67
2024/01/25 09:09:46;;;;;;;0.10;0.10;;;6.10;99.90;;;;;;5026604;28;20053;-67
2024/01/25 09:12:12;;;;;;;0.00;0.00;;;6.10;99.90;;;;;;5029766;28;20447;-67
2024/01/25 09:14:38;;;;;;;0.60;0.60;;;6.20;99.90;;;;;;5022096;28;20049;-68
2024/01/25 09:17:04;;;;;;;0.10;0.10;;;6.20;99.90;;;;;;5030565;28;20064;-67
2024/01/25 09:19:30;;;;;;;0.15;0.15;;;6.20;99.90;;;;;;5020690;28;20052;-67
2024/01/25 09:21:58;;;;;;;3.28;3.00;;;6.30;99.90;;;;;;5016163;28;20054;-67
2024/01/25 09:24:23;;;;;;;0.10;0.10;;;6.30;99.90;;;;;;5017857;28;20053;-67
2024/01/25 09:26:49;;;;;;;0.10;0.10;;;6.30;99.90;;;;;;5020356;28;20054;-67
2024/01/25 09:29:14;;;;;;;0.20;0.20;;;6.30;99.90;;;;;;5027821;28;20037;-67
2024/01/25 09:31:40;;;;;;;0.10;0.10;;;6.30;99.90;;;;;;5022465;28;20397;-67
2024/01/25 09:34:06;;;;;;;0.10;0.10;;;6.40;99.90;;;;;;5027189;28;20049;-67
2024/01/25 09:36:32;;;;;;;0.10;0.10;;;6.40;99.90;;;;;;5027759;28;20060;-67
2024/01/25 09:38:57;;;;;;;1.10;0.98;;;6.40;99.90;;;;;;5022069;28;20049;-67
2024/01/25 09:41:23;;;;;;;0.10;0.10;;;6.40;99.90;;;;;;5028839;28;20045;-67
2024/01/25 09:43:49;;;;;;;0.63;0.63;;;6.40;99.90;;;;;;5024308;28;20123;-67
2024/01/25 09:46:15;;;;;;;0.00;0.00;;;6.40;99.90;;;;;;5028379;28;20067;-67
2024/01/25 09:48:43;;;;;;;1.75;1.65;;;6.50;99.90;;;;;;5025059;28;20046;-67
2024/01/25 09:51:11;;;;;;;1.90;0.47;;;6.40;99.90;;;;;;5030007;28;20187;-67
2024/01/25 09:53:37;;;;;;;0.40;0.40;;;6.50;99.90;;;;;;5014461;28;20049;-67
2024/01/25 09:56:08;;;;;;;2.40;1.75;;;6.40;99.90;;;;;;5013119;28;20128;-67
2024/01/25 09:58:41;;;;;;;0.10;0.10;;;6.50;99.90;;;;;;5026620;28;20124;-67
2024/01/25 10:01:12;;;;;;;0.80;0.80;;;6.50;99.90;;;;;;5030466;28;20172;-67
2024/01/25 10:03:45;;;;;;;0.40;0.30;;;6.60;99.90;;;;;;5023932;28;20046;-67
2024/01/25 10:06:12;;;;;;;1.20;1.10;;;6.60;99.90;;;;;;5021504;28;20045;-67
2024/01/25 10:08:37;;;;;;;8.30;2.47;;;6.70;99.90;;;;;;5023419;28;20064;-67
2024/01/25 10:11:04;;;;;;;0.32;0.32;;;6.80;99.90;;;;;;5028159;28;20488;-67
2024/01/25 10:13:29;;;;;;;0.30;0.30;;;6.80;99.90;;;;;;5018617;28;20029;-67
2024/01/25 10:15:56;;;;;;;0.45;0.45;;;6.80;99.90;;;;;;5029729;28;20045;-67
2024/01/25 10:18:25;;;;;;;10.75;3.53;;;6.90;99.90;;;;;;5023989;28;20121;-67
2024/01/25 10:20:53;;;;;;;1.55;1.45;;;7.00;99.90;;;;;;5018930;28;20087;-67
2024/01/25 10:23:18;;;;;;;1.95;1.27;;;7.10;99.90;;;;;;5023356;28;20437;-67
2024/01/25 10:25:44;;;;;;;0.80;0.80;;;7.20;99.90;;;;;;5019799;28;20045;-67
2024/01/25 10:28:12;;;;;;;0.10;0.10;;;7.40;99.90;;;;;;5016543;28;20413;-67
2024/01/25 10:30:38;;;;;;;0.10;0.10;;;7.50;99.90;;;;;;5024215;28;20136;-67
2024/01/25 10:33:04;;;;;;;0.10;0.10;;;7.60;99.90;;;;;;5021026;28;20054;-67
2024/01/25 10:35:31;;;;;;;0.10;0.10;;;7.60;99.90;;;;;;5027722;28;20041;-68
2024/01/25 10:37:57;;;;;;;0.10;0.10;;;7.70;99.90;;;;;;5023301;28;20425;-67
2024/01/25 10:40:23;;;;;;;0.28;0.28;;;7.80;99.90;;;;;;5017850;28;20053;-67
2024/01/25 10:42:49;;;;;;;0.10;0.10;;;7.80;99.90;;;;;;5019291;28;20458;-67
2024/01/25 10:45:15;;;;;;;2.47;1.35;;;7.90;99.90;;;;;;5023702;28;20045;-67
2024/01/25 10:47:41;;;;;;;7.32;2.47;;;7.90;99.90;;;;;;5017343;28;20054;-67
2024/01/25 10:50:13;;;;;;;4.57;2.88;;;8.00;99.90;;;;;;5019154;28;20077;-67
2024/01/25 10:52:41;;;;;;;0.10;0.10;;;8.10;99.90;;;;;;5036453;28;20050;-68
2024/01/25 10:55:11;;;;;;;3.25;1.75;;;8.20;99.90;;;;;;5025798;28;20047;-67
2024/01/25 10:57:43;;;;;;;0.10;0.10;;;8.40;99.90;;;;;;5028645;28;20092;-67
2024/01/25 11:00:10;;;;;;;0.10;0.10;;;8.50;99.90;;;;;;5030126;28;20037;-68
2024/01/25 11:02:37;;;;;;;0.10;0.10;;;8.60;99.90;;;;;;5027313;28;20146;-68
2024/01/25 11:05:13;;;;;;;0.47;0.47;;;8.70;99.90;;;;;;5018419;28;20054;-67
2024/01/25 11:07:47;;;;;;;20.52;0.93;;;8.80;99.90;;;;;;5020001;28;20045;-67
2024/01/25 11:10:37;;;;;;;0.20;0.20;;;8.80;99.90;;;;;;5028293;28;20049;-68
2024/01/25 11:13:05;;;;;;;10.05;2.92;;;8.80;99.90;;;;;;5017707;28;20029;-67
2024/01/25 11:15:33;;;;;;;0.52;0.52;;;8.60;99.90;;;;;;5024595;28;20090;-67
2024/01/25 11:17:59;;;;;;;18.42;4.05;;;8.60;99.90;;;;;;5027894;28;20065;-67
2024/01/25 11:20:27;;;;;;;2.50;1.65;;;8.50;99.90;;;;;;5017532;28;20523;-66
2024/01/25 11:22:58;;;;;;;0.28;0.28;;;8.50;99.90;;;;;;5033687;28;20060;-67
2024/01/25 11:25:27;;;;;;;1.75;1.65;;;8.40;99.90;;;;;;5026263;28;20120;-67
2024/01/25 11:27:54;;;;;;;2.83;1.85;;;8.40;99.90;;;;;;5027343;28;20044;-67
2024/01/25 11:30:20;;;;;;;1.23;1.13;;;8.40;99.90;;;;;;5017728;28;20046;-67
2024/01/25 11:32:49;;;;;;;0.10;0.10;;;8.30;99.90;;;;;;5034561;28;20063;-67
2024/01/25 11:35:18;;;;;;;0.65;0.65;;;8.30;99.90;;;;;;5029133;28;20084;-67
2024/01/25 11:37:48;;;;;;;0.80;0.80;;;8.30;99.90;;;;;;5014665;28;20401;-67
2024/01/25 11:40:16;;;;;;;1.83;1.25;;;8.30;99.90;;;;;;5018754;28;20149;-67
2024/01/25 11:42:49;;;;;;;0.10;0.10;;;8.30;99.90;;;;;;5027608;28;20045;-67
2024/01/25 11:45:14;;;;;;;0.38;0.38;;;8.20;99.90;;;;;;5031762;28;20042;-67
2024/01/25 11:47:42;;;;;;;2.38;2.22;;;8.10;99.90;;;;;;5021804;28;20111;-67
2024/01/25 11:50:10;;;;;;;0.20;0.20;;;8.10;99.90;;;;;;5025999;28;20053;-67
2024/01/25 11:52:36;;;;;;;0.10;0.10;;;8.20;99.90;;;;;;5030958;28;20041;-67
2024/01/25 11:55:03;;;;;;;1.20;1.00;;;8.40;99.90;;;;;;5023272;28;20140;-67
2024/01/25 11:57:42;;;;;;;0.93;0.93;;;8.50;99.90;;;;;;5042067;28;20048;-67
2024/01/25 12:00:12;;;;;;;2.35;2.15;;;8.60;99.90;;;;;;5020525;28;20041;-67
2024/01/25 12:02:38;;;;;;;0.73;0.73;;;8.60;99.90;;;;;;5023463;28;20053;-67
2024/01/25 12:05:05;;;;;;;11.50;2.65;;;8.60;99.90;;;;;;5014198;28;20045;-67
2024/01/25 12:07:31;;;;;;;0.35;0.35;;;8.70;99.90;;;;;;5021911;28;20049;-67
2024/01/25 12:10:05;;;;;;;2.13;1.95;;;8.80;99.90;;;;;;5032582;28;20049;-67
2024/01/25 12:12:30;;;;;;;;;;;9.00;99.90;;;;;;5023760;28;20041;-67
2024/01/25 12:15:00;;;;;;;0.08;0.08;;;9.10;99.90;;;;;;5023856;28;20368;-67
2024/01/25 12:17:29;;;;;;;3.47;2.05;;;9.10;99.90;;;;;;5021671;28;20375;-67
2024/01/25 12:19:56;;;;;;;7.03;2.13;;;9.00;99.90;;;;;;5026376;28;20400;-67
2024/01/25 12:22:22;;;;;;;0.98;0.98;;;9.00;99.90;;;;;;5025750;28;20482;-67
2024/01/25 12:24:49;;;;;;;0.38;0.38;;;9.00;99.90;;;;;;5028236;28;20049;-67
2024/01/25 12:27:17;;;;;;;1.35;0.80;;;9.00;99.90;;;;;;5015980;28;20087;-67
2024/01/25 12:29:45;;;;;;;0.55;0.55;;;9.00;99.90;;;;;;5030105;28;20049;-68
2024/01/25 12:32:11;;;;;;;3.03;2.08;;;9.20;99.90;;;;;;5030904;28;20033;-67
2024/01/25 12:34:39;;;;;;;2.28;2.00;;;9.10;99.90;;;;;;5031418;28;20045;-67
2024/01/25 12:37:04;;;;;;;0.30;0.30;;;9.10;99.90;;;;;;5022968;28;20045;-67
2024/01/25 12:39:30;;;;;;;10.75;2.55;;;9.10;99.90;;;;;;5021078;28;20558;-67
2024/01/25 12:41:55;;;;;;;6.90;1.30;;;9.00;99.90;;;;;;5027344;28;20417;-67
2024/01/25 12:44:21;;;;;;;0.43;0.43;;;9.00;99.90;;;;;;5028818;28;20065;-67
2024/01/25 12:46:46;;;;;;;0.43;0.43;;;8.90;99.90;;;;;;5029147;28;20042;-67
2024/01/25 12:49:12;;;;;;;1.75;1.65;;;8.90;99.90;;;;;;5037826;28;20044;-67
2024/01/25 12:51:38;;;;;;;9.95;1.75;;;8.90;99.90;;;;;;5029428;28;20054;-67
2024/01/25 12:54:03;;;;;;;0.52;0.52;;;9.10;99.90;;;;;;5011816;28;20056;-67